createdAt,value
2022-08-03T00:04:22.004Z,0
2022-08-03T00:09:36.051Z,0
2022-08-03T00:14:37.547Z,0
2022-08-03T00:19:39.101Z,0.88715
2022-08-03T00:24:40.806Z,0.88715
2022-08-03T00:30:00.127Z,0
2022-08-03T00:35:07.058Z,0.88715
2022-08-03T00:40:10.106Z,0
2022-08-03T00:45:11.641Z,0
2022-08-03T00:50:13.566Z,0
2022-08-03T00:55:15.139Z,0.88715
2022-08-03T01:00:16.827Z,0
2022-08-03T01:05:18.706Z,0
2022-08-03T01:10:20.329Z,0
2022-08-03T01:15:21.857Z,0
2022-08-03T01:20:23.665Z,0.88715
2022-08-03T01:25:25.131Z,0
2022-08-03T01:30:26.665Z,0
2022-08-03T01:35:29.492Z,0
2022-08-03T01:40:31.135Z,0
2022-08-03T01:45:33.980Z,0
2022-08-03T01:50:36.037Z,0.88715
2022-08-03T01:55:37.510Z,0
2022-08-03T02:00:39.074Z,0.88715
2022-08-03T02:05:40.771Z,0
2022-08-03T02:10:42.226Z,0.88715
2022-08-03T02:15:43.753Z,0
2022-08-03T02:20:45.345Z,0.88715
2022-08-03T02:25:46.986Z,0
2022-08-03T02:30:51.890Z,0
2022-08-03T02:35:55.842Z,0.88715
2022-08-03T02:40:57.646Z,0.88715
2022-08-03T02:45:59.094Z,0
2022-08-03T02:51:00.653Z,0
2022-08-03T02:56:02.215Z,0
2022-08-03T03:01:03.802Z,0
2022-08-03T03:06:05.680Z,0
2022-08-03T03:11:07.357Z,0
2022-08-03T03:16:08.827Z,0
2022-08-03T03:21:10.334Z,0
2022-08-03T03:26:11.798Z,0
2022-08-03T03:31:13.266Z,0.88715
2022-08-03T03:36:14.954Z,0
2022-08-03T03:41:16.397Z,0
2022-08-03T03:46:17.855Z,0
2022-08-03T03:51:19.298Z,0.88715
2022-08-03T03:56:20.944Z,0
2022-08-03T04:01:22.429Z,0
2022-08-03T04:06:24.131Z,0.88715
2022-08-03T04:11:30.224Z,0.88715
2022-08-03T04:16:33.409Z,0.88715
2022-08-03T04:21:35.026Z,0.88715
2022-08-03T04:26:36.650Z,0
2022-08-03T04:31:38.212Z,1.3463
2022-08-03T04:36:39.877Z,0.88885
2022-08-03T04:42:07.011Z,3.67
2022-08-03T04:47:10.022Z,2.42955
2022-08-03T04:52:11.691Z,10.0326
2022-08-03T04:57:22.539Z,18.53445
2022-08-03T05:02:25.076Z,23.55075
2022-08-03T05:07:35.575Z,37.86185
2022-08-03T05:12:37.937Z,57.07895
2022-08-03T05:17:39.357Z,66.2273
2022-08-03T05:22:40.975Z,86.60625
2022-08-03T05:27:42.440Z,82.9914
2022-08-03T05:32:44.075Z,67.86835
2022-08-03T05:37:54.386Z,56.0464
2022-08-03T05:42:56.336Z,38.72895
2022-08-03T05:47:57.878Z,32.1819
2022-08-03T05:52:59.620Z,29.67375
2022-08-03T05:58:01.078Z,31.2045
2022-08-03T06:03:02.596Z,51.7679
2022-08-03T06:08:04.630Z,55.4379
2022-08-03T06:13:06.076Z,56.83935
2022-08-03T06:18:07.512Z,67.9235
2022-08-03T06:23:16.025Z,69.8783
2022-08-03T06:28:51.814Z,116.48345
2022-08-03T06:34:34.303Z,154.43845
2022-08-03T06:39:37.260Z,158.5325
2022-08-03T06:44:38.724Z,98.20575
2022-08-03T06:49:40.358Z,109.5295
2022-08-03T06:54:41.840Z,197.11315
2022-08-03T07:00:07.774Z,344.87525
2022-08-03T07:05:12.617Z,418.2391
2022-08-03T07:10:14.412Z,427.22015
2022-08-03T07:15:20.527Z,396.75345
2022-08-03T07:20:55.103Z,345.6112
2022-08-03T07:25:56.828Z,449.4626
2022-08-03T07:30:58.277Z,441.0692
2022-08-03T07:35:59.814Z,481.3099
2022-08-03T07:41:01.565Z,577.654
2022-08-03T07:46:05.382Z,601.1686
2022-08-03T07:51:06.781Z,616.66055
2022-08-03T07:56:11.258Z,621.69585
2022-08-03T08:01:15.203Z,686.5977
2022-08-03T08:06:16.784Z,687.1682
2022-08-03T08:11:19.016Z,452.4138
2022-08-03T08:16:20.459Z,393.30405
2022-08-03T08:21:22.044Z,411.8575
2022-08-03T08:26:23.634Z,447.78355
2022-08-03T08:31:25.188Z,434.06195
2022-08-03T08:36:26.606Z,444.7772
2022-08-03T08:41:32.346Z,317.15445
2022-08-03T08:46:34.042Z,370.15835
2022-08-03T08:51:54.550Z,271.8233
2022-08-03T08:57:02.422Z,224.5545
2022-08-03T09:02:03.875Z,239.19835
2022-08-03T09:07:19.615Z,264.88835
2022-08-03T09:12:41.143Z,296.26015
2022-08-03T09:17:46.510Z,368.33285
2022-08-03T09:22:52.213Z,382.77325
2022-08-03T09:27:53.870Z,372.61135
2022-08-03T09:32:55.298Z,363.8319
2022-08-03T09:38:12.601Z,514.4692
2022-08-03T09:43:16.042Z,634.8261
2022-08-03T09:48:17.523Z,872.49555
2022-08-03T09:53:19.301Z,962.78895
2022-08-03T09:58:21.144Z,1026.30095
2022-08-03T10:03:22.781Z,1170.21415
2022-08-03T10:08:24.339Z,943.2961
2022-08-03T10:13:26.288Z,903.295
2022-08-03T10:18:27.844Z,1159.96095
2022-08-03T10:23:33.419Z,1258.59865
2022-08-03T10:28:35.624Z,1612.10085
2022-08-03T10:33:50.028Z,1787.54575
2022-08-03T10:38:53.850Z,1831.95465
2022-08-03T10:43:55.611Z,1869.7136
2022-08-03T10:48:57.186Z,1336.05975
2022-08-03T10:53:58.775Z,710.31205
2022-08-03T10:59:05.334Z,580.55005
2022-08-03T11:04:13.985Z,538.501
2022-08-03T11:09:18.071Z,442.71025
2022-08-03T11:14:19.737Z,399.9804
2022-08-03T11:19:21.196Z,249.636
2022-08-03T11:24:22.850Z,216.77145
2022-08-03T11:29:24.407Z,245.06275
2022-08-03T11:34:25.941Z,240.54465
2022-08-03T11:39:27.415Z,274.07285
2022-08-03T11:44:29.050Z,423.6776
2022-08-03T11:49:30.614Z,638.23935
2022-08-03T11:54:32.214Z,664.3724
2022-08-03T11:59:33.797Z,597.35215
2022-08-03T12:04:35.376Z,639.2909
2022-08-03T12:09:36.811Z,616.5331
2022-08-03T12:14:48.982Z,452.5964
2022-08-03T12:19:53.023Z,339.9864
2022-08-03T12:24:54.495Z,294.4518
2022-08-03T12:29:58.349Z,296.24115
2022-08-03T12:35:00.878Z,238.22095
2022-08-03T12:40:07.875Z,208.23345
2022-08-03T12:45:11.984Z,223.2272
2022-08-03T12:50:13.407Z,229.42435
2022-08-03T12:55:15.102Z,196.1909
2022-08-03T13:00:21.644Z,150.6563
2022-08-03T13:05:30.214Z,136.27105
2022-08-03T13:10:31.865Z,108.49695
2022-08-03T13:15:38.541Z,109.23475
2022-08-03T13:20:49.061Z,97.96615
2022-08-03T13:25:55.835Z,98.9074
2022-08-03T13:30:57.653Z,94.7392
2022-08-03T13:35:59.202Z,86.1632
2022-08-03T13:41:00.728Z,68.532
2022-08-03T13:46:07.091Z,66.8168
2022-08-03T13:51:12.016Z,87.93355
2022-08-03T13:56:24.217Z,89.40915
2022-08-03T14:01:54.075Z,64.43795
2022-08-03T14:06:56.573Z,63.8846
2022-08-03T14:12:07.516Z,55.4379
2022-08-03T14:17:11.002Z,40.70275
2022-08-03T14:22:13.697Z,73.53835
2022-08-03T14:27:15.156Z,135.5541
2022-08-03T14:32:16.907Z,179.2632
2022-08-03T14:37:18.876Z,174.09815
2022-08-03T14:42:20.562Z,182.03845
2022-08-03T14:47:23.133Z,208.8818
2022-08-03T14:52:24.563Z,178.2098
2022-08-03T14:57:26.040Z,89.1823
2022-08-03T15:02:27.634Z,95.07195
2022-08-03T15:07:29.083Z,75.74455
2022-08-03T15:12:30.560Z,72.05555
2022-08-03T15:17:32.932Z,56.7842
2022-08-03T15:22:35.178Z,41.05265
2022-08-03T15:27:36.930Z,31.2045
2022-08-03T15:33:06.889Z,21.9097
2022-08-03T15:38:09.653Z,16.94855
2022-08-03T15:43:11.450Z,8.0778
2022-08-03T15:48:13.127Z,2.01475
2022-08-03T15:53:14.779Z,1.2444
2022-08-03T15:59:04.359Z,0.8296
2022-08-03T16:04:13.276Z,1.16185
2022-08-03T16:09:24.153Z,0.88715
2022-08-03T16:14:52.421Z,0.88715
2022-08-03T16:19:55.403Z,0.88715
2022-08-03T16:24:56.912Z,0
2022-08-03T16:29:58.748Z,0.88715
2022-08-03T16:35:00.292Z,0
2022-08-03T16:40:01.816Z,0
2022-08-03T16:45:03.298Z,0
2022-08-03T16:50:11.919Z,0.88715
2022-08-03T16:55:42.971Z,0
2022-08-03T17:00:50.987Z,0
2022-08-03T17:05:52.900Z,0.88715
2022-08-03T17:10:54.498Z,0
2022-08-03T17:15:57.710Z,0.88715
2022-08-03T17:21:01.684Z,0
2022-08-03T17:26:05.954Z,0
2022-08-03T17:31:23.411Z,0
2022-08-03T17:37:02.154Z,0
2022-08-03T17:42:05.160Z,0.88715
2022-08-03T17:47:41.847Z,0
2022-08-03T17:52:48.219Z,0
2022-08-03T17:58:02.050Z,0
2022-08-03T18:03:04.611Z,0.88715
2022-08-03T18:08:11.180Z,0.88715
2022-08-03T18:13:13.347Z,0.88715
2022-08-03T18:18:15.381Z,0
2022-08-03T18:23:24.832Z,0
2022-08-03T18:28:38.506Z,0
2022-08-03T18:34:16.629Z,0.88715
2022-08-03T18:39:33.508Z,0
2022-08-03T18:44:54.287Z,0
2022-08-03T18:49:58.613Z,0
2022-08-03T18:55:04.544Z,0
2022-08-03T19:00:15.970Z,0.88715
2022-08-03T19:05:17.474Z,0.88715
2022-08-03T19:10:19.393Z,0
2022-08-03T19:15:36.328Z,0.88715
2022-08-03T19:20:38.716Z,0
2022-08-03T19:25:40.603Z,0
2022-08-03T19:30:53.290Z,0
2022-08-03T19:35:56.907Z,0
2022-08-03T19:40:59.683Z,0
2022-08-03T19:46:06.039Z,0
2022-08-03T19:51:12.072Z,0
2022-08-03T19:56:14.559Z,0
2022-08-03T20:01:19.407Z,0
2022-08-03T20:06:23.299Z,0
2022-08-03T20:11:28.887Z,0.88715
2022-08-03T20:16:32.324Z,0
2022-08-03T20:21:33.942Z,0
2022-08-03T20:26:40.209Z,0
2022-08-03T20:31:45.050Z,0
2022-08-03T20:36:46.569Z,0
2022-08-03T20:41:48.163Z,0
2022-08-03T20:46:53.168Z,0.88715
2022-08-03T20:52:02.709Z,0.88715
2022-08-03T20:57:06.936Z,0
2022-08-03T21:03:14.707Z,0
2022-08-03T21:08:17.345Z,0
2022-08-03T21:18:21.412Z,0
2022-08-03T21:23:40.323Z,0.88715
2022-08-03T21:28:51.290Z,0
2022-08-03T21:33:53.843Z,0
2022-08-03T21:38:55.791Z,0
2022-08-03T21:43:58.224Z,0
2022-08-03T21:49:51.881Z,0.88715
2022-08-03T21:55:18.650Z,0
2022-08-03T22:00:23.243Z,0
2022-08-03T22:05:28.841Z,0.88715
2022-08-03T22:10:30.699Z,0
2022-08-03T22:15:32.163Z,0
2022-08-03T22:20:33.699Z,0.88715
2022-08-03T22:25:35.155Z,0.88715
2022-08-03T22:30:37.286Z,0
2022-08-03T22:35:47.247Z,0
2022-08-03T22:40:49.579Z,0
2022-08-03T22:46:09.248Z,0
2022-08-03T22:51:14.109Z,0.88715
2022-08-03T22:56:15.686Z,0.88715
2022-08-03T23:01:17.890Z,0
2022-08-03T23:06:19.640Z,0
2022-08-03T23:11:21.158Z,0
2022-08-03T23:16:28.727Z,0
2022-08-03T23:22:00.259Z,0
2022-08-03T23:27:04.437Z,0
2022-08-03T23:32:06.057Z,0
2022-08-03T23:37:07.510Z,0
2022-08-03T23:42:09.129Z,0
2022-08-03T23:47:10.612Z,0
2022-08-03T23:52:12.147Z,0
2022-08-03T23:57:13.671Z,0
